createdAt,value
2022-09-27T00:00:51.733Z,3.00
2022-09-27T00:03:20.256Z,4.00
2022-09-27T00:05:48.512Z,3.00
2022-09-27T00:08:16.748Z,3.80
2022-09-27T00:10:44.996Z,3.00
2022-09-27T00:13:14.940Z,3.20
2022-09-27T00:15:43.201Z,2.20
2022-09-27T00:18:11.450Z,2.60
2022-09-27T00:20:40.155Z,1.40
2022-09-27T00:23:08.386Z,2.60
2022-09-27T00:25:36.628Z,1.00
2022-09-27T00:28:04.868Z,1.40
2022-09-27T00:30:34.509Z,1.00
2022-09-27T00:33:02.747Z,1.00
2022-09-27T00:35:30.984Z,0.60
2022-09-27T00:37:59.243Z,1.00
2022-09-27T00:40:27.506Z,1.00
2022-09-27T00:42:55.825Z,0.80
2022-09-27T00:45:24.211Z,0.80
2022-09-27T00:47:55.781Z,3.80
2022-09-27T00:50:27.645Z,1.00
2022-09-27T00:53:03.291Z,0.80
2022-09-27T00:55:34.698Z,1.40
2022-09-27T00:58:03.069Z,0.00
2022-09-27T01:00:31.722Z,0.80
2022-09-27T01:03:01.436Z,1.80
2022-09-27T01:05:30.082Z,1.80
2022-09-27T01:08:01.024Z,3.00
2022-09-27T01:10:30.666Z,3.00
2022-09-27T01:13:02.855Z,3.00
2022-09-27T01:15:34.448Z,1.00
2022-09-27T01:18:15.036Z,2.20
2022-09-27T01:21:12.036Z,1.00
2022-09-27T01:23:52.089Z,1.00
2022-09-27T01:26:28.023Z,2.20
2022-09-27T01:28:59.412Z,1.00
2022-09-27T01:31:32.069Z,1.00
2022-09-27T01:34:03.936Z,1.00
2022-09-27T01:36:37.609Z,3.00
2022-09-27T01:39:11.881Z,3.00
2022-09-27T01:41:43.436Z,3.00
2022-09-27T01:44:14.836Z,2.20
2022-09-27T01:46:46.563Z,1.00
2022-09-27T01:49:20.957Z,1.40
2022-09-27T01:51:50.093Z,3.00
2022-09-27T01:54:20.817Z,6.00
2022-09-27T01:56:50.465Z,3.00
2022-09-27T01:59:21.753Z,4.40
2022-09-27T02:01:52.386Z,4.40
2022-09-27T02:04:22.600Z,3.00
2022-09-27T02:06:53.536Z,4.00
2022-09-27T02:09:24.069Z,4.00
2022-09-27T02:11:56.520Z,3.00
2022-09-27T02:14:27.993Z,3.00
2022-09-27T02:17:00.203Z,3.00
2022-09-27T02:19:34.233Z,3.00
2022-09-27T02:22:08.400Z,4.00
2022-09-27T02:24:39.064Z,3.00
2022-09-27T02:27:10.989Z,3.00
2022-09-27T02:29:41.176Z,2.60
2022-09-27T02:32:10.817Z,3.00
2022-09-27T02:34:39.330Z,3.00
2022-09-27T02:37:07.714Z,1.00
2022-09-27T02:39:35.972Z,1.00
2022-09-27T02:42:04.280Z,3.60
2022-09-27T02:44:32.562Z,3.00
2022-09-27T02:47:14.848Z,3.00
2022-09-27T02:49:49.993Z,1.00
2022-09-27T02:52:23.270Z,4.00
2022-09-27T02:54:55.534Z,4.00
2022-09-27T02:57:29.815Z,4.00
2022-09-27T03:00:05.347Z,3.00
2022-09-27T03:02:38.645Z,3.60
2022-09-27T03:05:08.238Z,2.60
2022-09-27T03:07:38.645Z,1.80
2022-09-27T03:10:07.692Z,4.00
2022-09-27T03:12:35.946Z,4.00
2022-09-27T03:15:04.337Z,4.00
2022-09-27T03:17:32.606Z,5.20
2022-09-27T03:20:02.628Z,1.80
2022-09-27T03:22:30.907Z,4.00
2022-09-27T03:24:59.153Z,4.00
2022-09-27T03:27:27.427Z,3.60
2022-09-27T03:29:55.702Z,4.80
2022-09-27T03:32:24.265Z,5.60
2022-09-27T03:34:54.237Z,4.00
2022-09-27T03:37:24.058Z,4.40
2022-09-27T03:39:52.609Z,4.80
2022-09-27T03:42:20.851Z,6.40
2022-09-27T03:44:49.148Z,4.40
2022-09-27T03:47:17.395Z,4.40
2022-09-27T03:49:46.154Z,3.00
2022-09-27T03:52:14.412Z,4.00
2022-09-27T03:54:44.149Z,4.80
2022-09-27T03:57:12.892Z,4.00
2022-09-27T03:59:41.191Z,6.40
2022-09-27T04:02:09.519Z,3.00
2022-09-27T04:04:38.118Z,5.60
2022-09-27T04:07:06.417Z,4.00
2022-09-27T04:09:34.659Z,6.20
2022-09-27T04:12:04.599Z,4.00
2022-09-27T04:14:33.767Z,4.00
2022-09-27T04:17:02.373Z,1.00
2022-09-27T04:19:30.762Z,3.80
2022-09-27T04:21:59.032Z,3.60
2022-09-27T04:24:27.549Z,3.40
2022-09-27T04:26:57.055Z,3.00
2022-09-27T04:29:27.072Z,6.60
2022-09-27T04:31:55.362Z,6.00
2022-09-27T04:34:46.017Z,5.60
2022-09-27T04:37:14.605Z,4.80
2022-09-27T04:39:43.138Z,5.60
2022-09-27T04:42:11.658Z,6.00
2022-09-27T04:44:41.315Z,4.00
2022-09-27T04:47:10.997Z,4.00
2022-09-27T04:49:39.871Z,3.20
2022-09-27T04:52:08.154Z,1.00
2022-09-27T04:54:36.671Z,4.40
2022-09-27T04:57:05.433Z,3.00
2022-09-27T04:59:33.701Z,3.00
2022-09-27T05:02:03.693Z,0.00
2022-09-27T05:04:32.085Z,0.80
2022-09-27T05:07:00.340Z,1.00
2022-09-27T05:09:31.007Z,1.40
2022-09-27T05:11:59.769Z,3.00
2022-09-27T05:14:29.043Z,3.00
2022-09-27T05:16:58.338Z,4.00
2022-09-27T05:19:28.122Z,3.00
2022-09-27T05:21:56.457Z,4.00
2022-09-27T05:24:24.707Z,3.80
2022-09-27T05:26:53.652Z,5.20
2022-09-27T05:29:22.145Z,3.00
2022-09-27T05:31:51.096Z,4.00
2022-09-27T05:34:21.503Z,3.20
2022-09-27T05:36:51.162Z,3.00
2022-09-27T05:39:20.083Z,4.00
2022-09-27T05:44:40.498Z,3.00
2022-09-27T05:47:13.280Z,3.20
2022-09-27T05:49:41.774Z,4.00
2022-09-27T05:52:15.070Z,3.80
2022-09-27T05:54:45.674Z,3.60
2022-09-27T05:57:13.956Z,3.00
2022-09-27T05:59:43.839Z,3.40
2022-09-27T06:02:14.043Z,4.00
2022-09-27T06:04:43.323Z,4.00
2022-09-27T06:07:13.202Z,0.00
2022-09-27T06:09:57.677Z,4.40
2022-09-27T06:12:31.887Z,3.00
2022-09-27T06:15:00.349Z,3.40
2022-09-27T06:17:29.075Z,3.80
2022-09-27T06:19:57.991Z,3.60
2022-09-27T06:22:28.295Z,4.00
2022-09-27T06:24:57.222Z,3.00
2022-09-27T06:27:28.835Z,3.00
2022-09-27T06:29:59.089Z,5.40
2022-09-27T06:32:28.142Z,3.00
2022-09-27T06:34:56.681Z,3.00
2022-09-27T06:37:28.128Z,3.00
2022-09-27T06:39:56.656Z,0.80
2022-09-27T06:42:25.043Z,3.00
2022-09-27T06:44:54.601Z,1.40
2022-09-27T06:47:23.953Z,3.00
2022-09-27T06:49:52.670Z,3.00
2022-09-27T06:52:21.189Z,3.00
2022-09-27T06:54:50.852Z,3.00
2022-09-27T06:57:39.333Z,3.00
2022-09-27T07:00:22.022Z,1.00
2022-09-27T07:02:50.719Z,3.20
2022-09-27T07:05:19.397Z,3.00
2022-09-27T07:07:48.759Z,1.00
2022-09-27T07:10:18.721Z,1.00
2022-09-27T07:12:48.930Z,1.80
2022-09-27T07:15:17.581Z,3.00
2022-09-27T07:17:46.113Z,2.20
2022-09-27T07:20:14.824Z,3.80
2022-09-27T07:22:44.360Z,3.00
2022-09-27T07:25:12.710Z,3.20
2022-09-27T07:27:42.553Z,4.00
2022-09-27T07:30:12.121Z,3.00
2022-09-27T07:32:40.407Z,3.60
2022-09-27T07:35:09.666Z,3.20
2022-09-27T07:37:38.532Z,3.00
2022-09-27T07:40:10.011Z,2.20
2022-09-27T07:42:57.618Z,3.20
2022-09-27T07:45:27.433Z,4.80
2022-09-27T07:48:14.652Z,3.00
2022-09-27T07:50:42.996Z,3.00
2022-09-27T07:53:15.774Z,3.00
2022-09-27T07:55:46.448Z,3.20
2022-09-27T07:58:14.920Z,3.00
2022-09-27T08:00:49.486Z,4.00
2022-09-27T08:03:21.592Z,0.00
2022-09-27T08:05:50.165Z,4.40
2022-09-27T08:08:18.512Z,3.40
2022-09-27T08:10:47.302Z,3.60
2022-09-27T08:13:21.009Z,3.00
2022-09-27T08:15:52.757Z,3.00
2022-09-27T08:18:26.645Z,4.40
2022-09-27T08:21:03.404Z,3.00
2022-09-27T08:23:33.086Z,3.40
2022-09-27T08:26:01.340Z,3.00
2022-09-27T08:28:29.932Z,1.80
2022-09-27T08:31:02.362Z,0.40
2022-09-27T08:33:33.492Z,1.00
2022-09-27T08:36:03.709Z,0.40
2022-09-27T08:38:32.436Z,2.60
2022-09-27T08:41:02.979Z,4.00
2022-09-27T08:43:37.473Z,1.00
2022-09-27T08:46:19.084Z,0.80
2022-09-27T08:48:47.791Z,1.00
2022-09-27T08:51:16.039Z,1.80
2022-09-27T08:53:47.399Z,0.20
2022-09-27T08:56:15.694Z,1.00
2022-09-27T08:58:46.673Z,1.00
2022-09-27T09:01:17.242Z,1.00
2022-09-27T09:03:50.144Z,1.00
2022-09-27T09:06:24.424Z,1.00
2022-09-27T09:09:02.394Z,1.00
2022-09-27T09:11:50.349Z,3.00
2022-09-27T09:14:27.353Z,1.00
2022-09-27T09:17:01.905Z,3.00
2022-09-27T09:19:40.814Z,1.00
2022-09-27T09:22:16.634Z,2.20
2022-09-27T09:24:51.536Z,1.00
2022-09-27T09:27:22.754Z,2.20
2022-09-27T09:30:01.581Z,3.00
2022-09-27T09:32:35.747Z,3.00
2022-09-27T09:35:05.002Z,1.00
2022-09-27T09:37:37.891Z,1.00
2022-09-27T09:40:09.391Z,3.80
2022-09-27T09:42:40.379Z,1.00
2022-09-27T09:45:16.326Z,3.00
2022-09-27T09:47:47.327Z,1.40
2022-09-27T09:50:18.337Z,1.80
2022-09-27T09:52:49.372Z,3.00
2022-09-27T09:55:20.538Z,3.00
2022-09-27T09:57:56.549Z,1.00
2022-09-27T10:00:25.227Z,2.60
2022-09-27T10:02:55.791Z,2.20
2022-09-27T10:05:24.663Z,1.00
2022-09-27T10:07:54.187Z,1.00
2022-09-27T10:10:22.646Z,3.00
2022-09-27T10:12:50.957Z,2.20
2022-09-27T10:15:20.179Z,2.60
2022-09-27T10:17:51.691Z,1.00
2022-09-27T10:20:28.505Z,1.00
2022-09-27T10:22:58.915Z,4.40
2022-09-27T10:25:28.039Z,7.00
2022-09-27T10:27:56.922Z,1.80
2022-09-27T10:30:28.475Z,2.20
2022-09-27T10:32:58.234Z,3.00
2022-09-27T10:35:38.146Z,4.00
2022-09-27T10:38:22.997Z,3.00
2022-09-27T10:40:53.499Z,3.40
2022-09-27T10:43:29.680Z,1.00
2022-09-27T10:46:08.524Z,3.80
2022-09-27T10:48:36.916Z,2.60
2022-09-27T10:51:07.401Z,3.00
2022-09-27T10:53:37.902Z,4.00
2022-09-27T10:56:06.425Z,3.00
2022-09-27T10:58:35.976Z,3.60
2022-09-27T11:01:05.670Z,3.60
2022-09-27T11:03:39.709Z,3.00
2022-09-27T11:06:26.253Z,2.20
2022-09-27T11:08:55.116Z,3.60
2022-09-27T11:14:38.067Z,3.00
2022-09-27T11:17:14.709Z,3.20
2022-09-27T11:19:55.627Z,3.00
2022-09-27T11:22:35.844Z,0.00
2022-09-27T11:25:13.025Z,3.00
2022-09-27T11:27:47.487Z,1.00
2022-09-27T11:30:16.458Z,1.80
2022-09-27T11:32:55.485Z,3.20
2022-09-27T11:35:32.766Z,1.80
2022-09-27T11:38:10.435Z,3.00
2022-09-27T11:43:51.669Z,1.00
2022-09-27T11:46:30.976Z,3.00
2022-09-27T11:49:12.204Z,3.00
2022-09-27T11:51:49.137Z,3.00
2022-09-27T11:54:27.281Z,0.20
2022-09-27T11:56:58.641Z,3.00
2022-09-27T11:59:37.779Z,4.00
2022-09-27T12:02:11.969Z,4.00
2022-09-27T12:04:48.742Z,6.00
2022-09-27T12:07:19.486Z,3.00
2022-09-27T12:09:51.402Z,2.20
2022-09-27T12:12:20.515Z,3.80
2022-09-27T12:14:50.261Z,4.00
2022-09-27T12:17:19.985Z,4.00
2022-09-27T12:19:51.038Z,3.00
2022-09-27T12:22:40.239Z,3.80
2022-09-27T12:25:18.296Z,3.00
2022-09-27T12:27:50.963Z,3.00
2022-09-27T12:30:19.465Z,2.20
2022-09-27T12:32:54.447Z,2.20
2022-09-27T12:35:24.024Z,3.00
2022-09-27T12:37:54.006Z,0.40
2022-09-27T12:40:25.153Z,3.00
2022-09-27T12:42:56.078Z,5.20
2022-09-27T12:45:29.540Z,3.00
2022-09-27T12:48:04.101Z,3.60
2022-09-27T12:50:37.032Z,3.00
2022-09-27T12:53:06.940Z,3.80
2022-09-27T12:55:52.522Z,3.80
2022-09-27T12:58:56.837Z,3.00
2022-09-27T13:01:33.918Z,3.20
2022-09-27T13:04:11.617Z,3.20
2022-09-27T13:06:48.816Z,3.00
2022-09-27T13:09:30.800Z,3.40
2022-09-27T13:12:03.680Z,3.00
2022-09-27T13:14:34.659Z,3.00
2022-09-27T13:17:02.990Z,3.00
2022-09-27T13:19:43.305Z,3.00
2022-09-27T13:22:22.885Z,2.20
2022-09-27T13:27:56.210Z,3.60
2022-09-27T13:30:47.371Z,1.00
2022-09-27T13:33:33.787Z,3.00
2022-09-27T13:36:08.727Z,3.40
2022-09-27T13:39:34.452Z,3.60
2022-09-27T13:42:10.933Z,3.20
2022-09-27T13:44:47.448Z,3.00
2022-09-27T13:47:26.236Z,3.00
2022-09-27T13:49:55.885Z,1.00
2022-09-27T13:52:27.677Z,3.00
2022-09-27T13:54:58.780Z,2.20
2022-09-27T13:57:46.689Z,1.00
2022-09-27T14:00:18.544Z,3.00
2022-09-27T14:05:57.793Z,1.80
2022-09-27T14:08:30.095Z,0.00
2022-09-27T14:10:58.628Z,0.00
2022-09-27T14:13:27.260Z,1.00
2022-09-27T14:15:57.009Z,1.00
2022-09-27T14:18:25.334Z,1.00
2022-09-27T14:20:54.248Z,1.00
2022-09-27T14:23:23.241Z,2.20
2022-09-27T14:25:52.842Z,1.80
2022-09-27T14:28:22.942Z,3.00
2022-09-27T14:33:45.219Z,1.40
2022-09-27T14:36:35.869Z,1.00
2022-09-27T14:39:04.292Z,3.00
2022-09-27T14:41:37.373Z,0.40
2022-09-27T14:44:28.032Z,1.00
2022-09-27T14:47:10.612Z,2.20
2022-09-27T14:49:47.494Z,1.00
2022-09-27T14:52:19.076Z,1.40
2022-09-27T14:54:56.179Z,1.00
2022-09-27T14:57:24.704Z,3.20
2022-09-27T14:59:53.574Z,3.00
2022-09-27T15:02:23.904Z,1.80
2022-09-27T15:04:55.202Z,1.00
2022-09-27T15:07:23.563Z,3.00
2022-09-27T15:09:52.738Z,1.40
2022-09-27T15:12:26.579Z,1.00
2022-09-27T15:14:58.344Z,1.00
2022-09-27T15:17:26.779Z,0.00
2022-09-27T15:20:00.781Z,3.00
2022-09-27T15:22:35.612Z,1.00
2022-09-27T15:25:09.394Z,1.00
2022-09-27T15:27:38.881Z,0.00
2022-09-27T15:30:08.160Z,1.40
2022-09-27T15:32:36.402Z,1.00
2022-09-27T15:35:09.717Z,2.60
2022-09-27T15:37:38.821Z,1.00
2022-09-27T15:40:33.454Z,3.00
2022-09-27T15:43:02.800Z,0.80
2022-09-27T15:45:31.303Z,3.00
2022-09-27T15:48:07.084Z,0.60
2022-09-27T15:50:38.991Z,1.00
2022-09-27T15:53:40.488Z,1.00
2022-09-27T15:56:08.714Z,1.00
2022-09-27T15:58:37.474Z,0.20
2022-09-27T16:01:06.769Z,0.00
2022-09-27T16:03:35.696Z,0.80
2022-09-27T16:06:05.550Z,1.00
2022-09-27T16:08:33.743Z,1.00
2022-09-27T16:11:20.549Z,0.00
2022-09-27T16:13:50.416Z,0.40
2022-09-27T16:16:19.868Z,3.00
2022-09-27T16:18:48.152Z,0.80
2022-09-27T16:21:17.795Z,1.80
2022-09-27T16:23:46.047Z,1.00
2022-09-27T16:26:14.347Z,0.60
2022-09-27T16:28:43.282Z,0.40
2022-09-27T16:31:12.370Z,2.60
2022-09-27T16:33:40.686Z,1.00
2022-09-27T16:36:14.838Z,1.00
2022-09-27T16:38:44.614Z,0.80
2022-09-27T16:41:12.835Z,3.00
2022-09-27T16:43:41.153Z,3.00
2022-09-27T16:46:13.223Z,0.60
2022-09-27T16:48:41.518Z,0.80
2022-09-27T16:51:42.388Z,0.60
2022-09-27T16:54:12.592Z,1.00
2022-09-27T16:56:40.905Z,1.00
2022-09-27T16:59:09.270Z,0.00
2022-09-27T17:01:37.673Z,1.00
2022-09-27T17:04:07.269Z,3.00
2022-09-27T17:06:35.529Z,1.00
2022-09-27T17:09:22.491Z,3.20
2022-09-27T17:11:52.366Z,0.40
2022-09-27T17:14:21.075Z,4.00
2022-09-27T17:16:49.612Z,3.00
2022-09-27T17:19:18.520Z,1.00
2022-09-27T17:21:47.200Z,0.00
2022-09-27T17:24:15.563Z,1.00
2022-09-27T17:26:43.846Z,3.00
2022-09-27T17:29:14.015Z,9.00
2022-09-27T17:32:00.135Z,6.80
2022-09-27T17:34:28.865Z,7.00
2022-09-27T17:36:57.903Z,3.60
2022-09-27T17:39:30.441Z,4.00
2022-09-27T17:42:05.286Z,3.00
2022-09-27T17:44:39.235Z,4.00
2022-09-27T17:47:39.811Z,4.00
2022-09-27T17:50:22.091Z,5.60
2022-09-27T17:52:50.407Z,6.60
2022-09-27T17:55:18.876Z,9.60
2022-09-27T17:57:48.342Z,9.20
2022-09-27T18:00:18.124Z,7.60
2022-09-27T18:02:54.461Z,10.00
2022-09-27T18:05:43.219Z,1.00
2022-09-27T18:08:11.449Z,9.00
2022-09-27T18:10:40.476Z,7.00
2022-09-27T18:13:08.734Z,7.00
2022-09-27T18:15:40.044Z,6.00
2022-09-27T18:18:11.493Z,4.00
2022-09-27T18:20:39.800Z,5.60
2022-09-27T18:23:08.066Z,6.40
2022-09-27T18:25:39.264Z,6.00
2022-09-27T18:28:07.560Z,7.00
2022-09-27T18:30:38.520Z,5.60
2022-09-27T18:33:25.320Z,5.60
2022-09-27T18:35:53.748Z,5.60
2022-09-27T18:38:22.287Z,7.00
2022-09-27T18:40:56.603Z,6.00
2022-09-27T18:43:25.810Z,9.40
2022-09-27T18:45:55.388Z,6.00
2022-09-27T18:48:23.677Z,6.20
2022-09-27T18:50:52.280Z,12.00
2022-09-27T18:53:45.445Z,12.40
2022-09-27T18:56:14.842Z,11.40
2022-09-27T18:58:43.552Z,4.00
2022-09-27T19:01:14.464Z,6.00
2022-09-27T19:03:43.013Z,6.00
2022-09-27T19:06:13.803Z,4.00
2022-09-27T19:08:42.245Z,6.00
2022-09-27T19:11:11.856Z,3.00
2022-09-27T19:13:50.204Z,2.20
2022-09-27T19:16:22.584Z,4.00
2022-09-27T19:18:51.062Z,9.80
2022-09-27T19:21:20.886Z,6.40
2022-09-27T19:23:50.141Z,13.00
2022-09-27T19:26:19.187Z,9.60
2022-09-27T19:28:47.810Z,6.00
2022-09-27T19:31:16.903Z,7.00
2022-09-27T19:33:46.562Z,8.20
2022-09-27T19:36:15.844Z,7.00
2022-09-27T19:38:44.670Z,6.00
2022-09-27T19:41:31.679Z,6.00
2022-09-27T19:43:59.901Z,8.60
2022-09-27T19:46:28.254Z,7.80
2022-09-27T19:48:58.033Z,6.00
2022-09-27T19:51:27.615Z,4.40
2022-09-27T19:53:55.860Z,5.60
2022-09-27T19:56:25.022Z,3.80
2022-09-27T19:58:54.407Z,5.60
2022-09-27T20:01:23.365Z,4.40
2022-09-27T20:03:52.925Z,6.80
2022-09-27T20:06:23.055Z,4.40
2022-09-27T20:08:51.810Z,5.60
2022-09-27T20:11:20.674Z,4.00
2022-09-27T20:13:50.201Z,5.60
2022-09-27T20:16:20.192Z,4.00
2022-09-27T20:18:49.451Z,6.00
2022-09-27T20:21:18.134Z,3.00
2022-09-27T20:23:49.420Z,6.00
2022-09-27T20:26:18.918Z,4.00
2022-09-27T20:29:05.670Z,6.00
2022-09-27T20:31:36.967Z,3.20
2022-09-27T20:34:05.328Z,4.80
2022-09-27T20:36:36.612Z,4.80
2022-09-27T20:39:07.828Z,5.20
2022-09-27T20:44:22.649Z,4.00
2022-09-27T20:46:50.992Z,5.60
2022-09-27T20:49:19.755Z,3.40
2022-09-27T20:51:49.632Z,4.00
2022-09-27T20:54:19.302Z,2.60
2022-09-27T20:56:48.243Z,2.60
2022-09-27T20:59:18.151Z,7.00
2022-09-27T21:01:47.716Z,3.00
2022-09-27T21:04:17.038Z,2.20
2022-09-27T21:06:46.078Z,4.80
2022-09-27T21:09:19.123Z,3.00
2022-09-27T21:11:49.115Z,4.00
2022-09-27T21:14:17.472Z,3.00
2022-09-27T21:16:46.023Z,4.00
2022-09-27T21:19:14.818Z,3.80
2022-09-27T21:21:43.117Z,6.00
2022-09-27T21:24:11.375Z,4.00
2022-09-27T21:26:39.604Z,3.00
2022-09-27T21:29:10.423Z,3.00
2022-09-27T21:31:38.986Z,4.80
2022-09-27T21:34:07.415Z,3.40
2022-09-27T21:36:36.815Z,3.00
2022-09-27T21:39:05.464Z,4.00
2022-09-27T21:41:33.835Z,3.00
2022-09-27T21:44:04.214Z,4.00
2022-09-27T21:46:33.962Z,1.00
2022-09-27T21:49:21.047Z,3.20
2022-09-27T21:51:49.965Z,3.00
2022-09-27T21:54:18.985Z,3.00
2022-09-27T21:56:47.809Z,3.00
2022-09-27T21:59:18.622Z,3.80
2022-09-27T22:01:49.198Z,4.00
2022-09-27T22:04:18.241Z,3.00
2022-09-27T22:06:46.989Z,3.00
2022-09-27T22:09:17.101Z,3.00
2022-09-27T22:11:47.912Z,4.00
2022-09-27T22:14:17.180Z,3.00
2022-09-27T22:16:45.694Z,4.00
2022-09-27T22:19:15.866Z,3.00
2022-09-27T22:21:44.286Z,3.00
2022-09-27T22:24:13.858Z,3.40
2022-09-27T22:26:42.740Z,3.00
2022-09-27T22:29:11.264Z,4.00
2022-09-27T22:31:57.938Z,3.00
2022-09-27T22:34:31.302Z,3.80
2022-09-27T22:37:01.010Z,3.00
2022-09-27T22:39:29.500Z,5.60
2022-09-27T22:41:58.026Z,6.00
2022-09-27T22:44:26.242Z,4.00
2022-09-27T22:46:54.536Z,3.00
2022-09-27T22:49:23.005Z,6.00
2022-09-27T22:51:52.905Z,0.80
2022-09-27T22:54:21.321Z,6.00
2022-09-27T22:56:57.395Z,3.40
2022-09-27T22:59:26.164Z,4.00
2022-09-27T23:01:54.458Z,3.40
2022-09-27T23:04:22.730Z,4.00
2022-09-27T23:06:52.373Z,6.20
2022-09-27T23:09:20.615Z,6.60
2022-09-27T23:11:48.866Z,3.20
2022-09-27T23:14:17.460Z,6.00
2022-09-27T23:16:45.974Z,4.80
2022-09-27T23:19:15.346Z,4.40
2022-09-27T23:21:43.596Z,4.00
2022-09-27T23:24:13.236Z,4.00
2022-09-27T23:26:41.741Z,5.20
2022-09-27T23:29:11.285Z,3.80
2022-09-27T23:31:39.606Z,4.00
2022-09-27T23:34:07.953Z,3.00
2022-09-27T23:36:36.749Z,3.00
2022-09-27T23:39:05.025Z,3.40
2022-09-27T23:41:52.940Z,1.80
2022-09-27T23:44:21.330Z,3.00
2022-09-27T23:46:49.684Z,3.00
2022-09-27T23:49:18.015Z,3.00
2022-09-27T23:51:46.400Z,4.00
2022-09-27T23:54:14.629Z,4.00
2022-09-27T23:56:44.485Z,2.60
2022-09-27T23:59:13.047Z,4.00
